Time;durP1;ratioP1;P1;durP2;ratioP2;P2;SDS_P1;SDS_P2;PMS_P1;PMS_P2;Temp;Humidity;BMP_temperature;BMP_pressure;BME280_temperature;BME280_humidity;BME280_pressure;Samples;Min_cycle;Max_cycle;Signal;HPM_P1;HPM_P2
2023/06/09 00:01:13;;;;;;;6.70;4.10;;;;;;;18.71;70.20;96831.47;5047807;28;20660;-68
2023/06/09 00:03:40;;;;;;;5.70;3.63;;;;;;;18.64;69.95;96822.44;5047213;28;20586;-68
2023/06/09 00:06:08;;;;;;;5.60;4.43;;;;;;;18.85;69.11;96820.69;5047423;28;20239;-68
2023/06/09 00:08:36;;;;;;;6.00;3.83;;;;;;;18.78;69.36;96803.75;5047304;28;20636;-69
2023/06/09 00:11:03;;;;;;;5.83;3.90;;;;;;;18.24;71.48;96818.66;5046984;28;20719;-71
2023/06/09 00:13:30;;;;;;;5.50;3.70;;;;;;;18.08;72.48;96813.84;5046939;28;20623;-67
2023/06/09 00:15:57;;;;;;;4.63;4.07;;;;;;;18.22;71.88;96820.59;5045686;28;20197;-67
2023/06/09 00:18:25;;;;;;;6.70;3.70;;;;;;;18.37;71.83;96820.22;5047245;28;20758;-66
2023/06/09 00:20:52;;;;;;;8.00;4.37;;;;;;;18.36;71.51;96820.34;5046792;28;20261;-66
2023/06/09 00:23:19;;;;;;;7.67;4.17;;;;;;;18.28;71.68;96822.75;5047583;28;20223;-67
2023/06/09 00:25:47;;;;;;;6.53;4.20;;;;;;;18.25;72.42;96815.13;5046729;28;20211;-67
2023/06/09 00:28:14;;;;;;;5.13;3.80;;;;;;;18.32;72.01;96818.91;5046940;28;20292;-70
2023/06/09 00:30:41;;;;;;;5.40;3.80;;;;;;;18.02;72.79;96810.84;5046725;28;20234;-66
2023/06/09 00:33:08;;;;;;;5.37;3.80;;;;;;;17.81;73.88;96821.22;5046535;28;20798;-67
2023/06/09 00:35:35;;;;;;;5.00;4.47;;;;;;;17.40;75.17;96811.31;5046733;28;20210;-67
2023/06/09 00:38:03;;;;;;;6.10;4.27;;;;;;;17.27;75.72;96805.31;5046358;28;20986;-66
2023/06/09 00:40:30;;;;;;;6.70;4.50;;;;;;;17.09;76.33;96811.97;5047246;28;20199;-69
2023/06/09 00:42:57;;;;;;;7.30;4.40;;;;;;;17.12;76.44;96809.13;5045216;28;20197;-66
2023/06/09 00:45:24;;;;;;;5.27;4.47;;;;;;;17.25;76.00;96806.41;5045548;28;20251;-66
2023/06/09 00:47:52;;;;;;;4.90;4.03;;;;;;;17.23;76.10;96809.13;5046500;28;20705;-67
2023/06/09 00:50:20;;;;;;;14.17;4.57;;;;;;;17.18;76.26;96808.66;5046425;28;20592;-66
2023/06/09 00:52:48;;;;;;;5.50;4.67;;;;;;;17.15;76.50;96795.78;5045464;28;20209;-71
2023/06/09 00:55:17;;;;;;;7.60;4.60;;;;;;;17.46;75.40;96813.44;5046647;28;20238;-69
2023/06/09 00:57:48;;;;;;;6.87;3.90;;;;;;;17.69;74.72;96814.34;5047088;28;20203;-67
2023/06/09 01:00:16;;;;;;;6.43;5.17;;;;;;;17.57;74.98;96815.28;5046355;28;20192;-70
2023/06/09 01:02:44;;;;;;;5.50;4.40;;;;;;;17.38;75.26;96800.13;5045295;28;20747;-71
2023/06/09 01:05:13;;;;;;;6.47;4.63;;;;;;;17.38;75.47;96810.59;5045336;28;20206;-69
2023/06/09 01:08:00;;;;;;;6.93;4.60;;;;;;;17.34;75.44;96808.31;5046326;28;20636;-73
2023/06/09 01:10:52;;;;;;;4.50;4.10;;;;;;;17.43;75.33;96803.22;5045544;28;20644;-69
2023/06/09 01:13:31;;;;;;;8.20;4.60;;;;;;;17.55;74.87;96811.94;5046079;28;20221;-67
2023/06/09 01:16:08;;;;;;;8.50;4.30;;;;;;;17.74;73.88;96809.59;5046298;28;20202;-67
2023/06/09 01:18:36;;;;;;;5.70;4.77;;;;;;;17.69;74.15;96801.22;5045213;28;20225;-70
2023/06/09 01:21:32;;;;;;;6.13;4.13;;;;;;;17.80;73.82;96799.44;5044952;28;20201;-72
2023/06/09 01:24:14;;;;;;;7.67;4.40;;;;;;;17.74;73.32;96799.91;5046760;28;20195;-68
2023/06/09 01:26:43;;;;;;;6.47;4.30;;;;;;;17.64;74.37;96803.41;5046428;28;20568;-68
2023/06/09 01:29:13;;;;;;;6.13;4.70;;;;;;;17.47;74.70;96791.56;5044945;28;20681;-69
2023/06/09 01:31:41;;;;;;;5.10;4.60;;;;;;;17.55;74.79;96804.94;5034471;28;20195;-66
2023/06/09 01:34:09;;;;;;;7.03;4.43;;;;;;;17.54;74.47;96800.63;5026637;28;20264;-67
2023/06/09 01:36:36;;;;;;;7.50;4.20;;;;;;;17.44;74.94;96811.91;5026450;28;20606;-74
2023/06/09 01:39:04;;;;;;;8.47;4.73;;;;;;;17.31;75.56;96806.75;5026075;28;20197;-66
2023/06/09 01:41:31;;;;;;;6.23;4.63;;;;;;;17.29;75.43;96808.66;5026500;28;20210;-67
2023/06/09 01:43:59;;;;;;;7.03;4.30;;;;;;;17.12;76.24;96793.44;5026285;28;20202;-69
2023/06/09 01:46:26;;;;;;;6.30;4.30;;;;;;;17.28;75.49;96793.09;5026112;28;20203;-66
2023/06/09 01:49:04;;;;;;;6.17;4.27;;;;;;;17.43;74.96;96790.13;5025091;28;20575;-78
2023/06/09 01:51:42;;;;;;;6.53;4.40;;;;;;;17.47;74.56;96796.81;5026120;28;20207;-75
2023/06/09 01:54:15;;;;;;;7.20;4.23;;;;;;;17.51;74.72;96794.81;5025498;28;20714;-79
2023/06/09 01:56:44;;;;;;;6.33;4.67;;;;;;;17.62;73.86;96800.06;5026206;28;20204;-78
2023/06/09 01:59:19;;;;;;;5.33;3.73;;;;;;;17.61;73.82;96786.13;5024902;28;20228;-78
2023/06/09 02:01:49;;;;;;;6.57;4.40;;;;;;;17.56;74.17;96774.31;5026153;28;20202;-72
2023/06/09 02:04:19;;;;;;;6.00;4.07;;;;;;;17.63;73.78;96802.56;5027501;28;20266;-78
2023/06/09 02:06:47;;;;;;;4.43;3.83;;;;;;;17.57;74.36;96795.19;5028964;28;20200;-79
2023/06/09 02:09:16;;;;;;;7.17;4.30;;;;;;;17.42;74.35;96792.84;5028285;28;20294;-78
2023/06/09 02:11:49;;;;;;;7.57;4.77;;;;;;;17.13;75.84;96802.94;5029833;28;20217;-77
2023/06/09 02:14:18;;;;;;;8.03;5.50;;;;;;;16.84;76.75;96804.28;5028444;28;20240;-77
2023/06/09 02:16:47;;;;;;;8.53;4.90;;;;;;;16.81;77.24;96791.44;5029344;28;20210;-80
2023/06/09 02:19:16;;;;;;;7.80;5.53;;;;;;;16.94;76.13;96798.25;5028174;28;20282;-80
2023/06/09 02:21:43;;;;;;;8.23;4.97;;;;;;;17.08;76.21;96794.59;5029344;28;20209;-80
2023/06/09 02:24:10;;;;;;;10.63;5.07;;;;;;;17.31;75.30;96793.66;5029667;28;20281;-79
2023/06/09 02:26:37;;;;;;;6.53;5.17;;;;;;;17.11;75.33;96802.22;5034480;28;20205;-79
2023/06/09 02:29:05;;;;;;;5.73;4.67;;;;;;;16.79;76.79;96799.41;5031807;28;20206;-66
2023/06/09 02:31:32;;;;;;;6.37;5.37;;;;;;;16.95;76.11;96799.09;5032178;28;20198;-76
2023/06/09 02:34:00;;;;;;;5.37;4.47;;;;;;;16.85;76.75;96796.31;5047249;28;20293;-75
2023/06/09 02:36:28;;;;;;;6.40;4.80;;;;;;;16.79;76.14;96795.94;5028373;28;20246;-68
2023/06/09 02:38:55;;;;;;;6.97;5.27;;;;;;;16.78;76.42;96797.72;5041850;28;20202;-73
2023/06/09 02:41:22;;;;;;;9.80;4.93;;;;;;;16.84;76.24;96792.03;5037319;28;20202;-70
2023/06/09 02:43:50;;;;;;;6.83;4.60;;;;;;;17.03;75.56;96787.09;5028034;28;20196;-77
2023/06/09 02:46:17;;;;;;;6.27;5.17;;;;;;;17.17;74.53;96788.66;5030406;28;20294;-79
2023/06/09 02:48:45;;;;;;;19.90;6.07;;;;;;;17.05;74.78;96800.06;5028983;28;20202;-79
2023/06/09 02:51:13;;;;;;;10.13;5.27;;;;;;;16.99;75.35;96803.97;5028837;28;20717;-66
2023/06/09 02:53:40;;;;;;;8.20;5.40;;;;;;;16.91;75.67;96802.88;5027599;28;20220;-73
2023/06/09 02:56:10;;;;;;;8.73;5.77;;;;;;;16.83;76.22;96789.53;5027414;28;20227;-67
2023/06/09 02:58:46;;;;;;;8.77;5.90;;;;;;;16.98;75.67;96799.69;5027902;28;20207;-73
2023/06/09 03:01:17;;;;;;;5.47;4.80;;;;;;;17.23;75.11;96796.03;5027193;28;20200;-68
2023/06/09 03:03:46;;;;;;;6.07;4.90;;;;;;;17.34;74.10;96795.22;5027395;28;20293;-66
2023/06/09 03:06:13;;;;;;;6.37;4.90;;;;;;;17.42;74.04;96798.94;5027211;28;20281;-78
2023/06/09 03:08:41;;;;;;;6.90;5.07;;;;;;;17.47;74.23;96799.44;5028421;28;20343;-70
2023/06/09 03:11:09;;;;;;;10.30;6.00;;;;;;;17.61;73.09;96801.84;5010117;28;20687;-71
2023/06/09 03:13:37;;;;;;;9.47;6.83;;;;;;;17.52;73.29;96805.16;5034216;28;20231;-77
2023/06/09 03:16:04;;;;;;;9.13;6.83;;;;;;;17.57;73.39;96802.19;5038629;28;20212;-74
2023/06/09 03:18:31;;;;;;;9.83;6.20;;;;;;;17.75;72.65;96806.00;5026668;28;20682;-67
2023/06/09 03:21:04;;;;;;;10.77;7.80;;;;;;;17.71;72.44;96800.16;5027045;28;21130;-68
2023/06/09 03:23:34;;;;;;;8.83;5.97;;;;;;;17.86;72.38;96798.13;5026745;28;20220;-77
2023/06/09 03:26:02;;;;;;;7.13;4.83;;;;;;;17.94;71.83;96800.16;5026854;28;20256;-75
2023/06/09 03:28:30;;;;;;;12.47;6.27;;;;;;;18.11;71.52;96803.13;5026662;28;20635;-74
2023/06/09 03:30:57;;;;;;;7.97;4.73;;;;;;;18.14;70.71;96809.88;5026512;28;20203;-72
2023/06/09 03:33:25;;;;;;;7.50;5.03;;;;;;;18.24;70.41;96808.19;5043632;28;20196;-76
2023/06/09 03:35:53;;;;;;;7.40;4.40;;;;;;;18.19;70.72;96810.34;5023051;28;20595;-71
2023/06/09 03:38:22;;;;;;;11.90;5.93;;;;;;;18.23;70.70;96809.16;5023084;28;20261;-66
2023/06/09 03:40:50;;;;;;;9.53;5.50;;;;;;;18.31;70.74;96825.94;5010788;28;20223;-67
2023/06/09 03:43:20;;;;;;;12.80;6.23;;;;;;;18.50;70.74;96814.84;5031797;28;20190;-66
2023/06/09 03:45:47;;;;;;;13.30;7.30;;;;;;;18.51;70.22;96819.97;5026990;28;20206;-79
2023/06/09 03:48:16;;;;;;;10.13;6.23;;;;;;;18.89;68.38;96835.22;5026087;28;20203;-75
2023/06/09 03:50:44;;;;;;;9.47;6.17;;;;;;;18.88;68.43;96848.44;5026768;28;20225;-69
2023/06/09 03:53:12;;;;;;;9.57;6.20;;;;;;;18.78;69.03;96829.16;5025970;28;20229;-67
2023/06/09 03:55:40;;;;;;;14.63;6.53;;;;;;;19.20;67.65;96833.50;5022379;28;20330;-67
2023/06/09 03:58:10;;;;;;;8.17;5.17;;;;;;;19.11;66.97;96832.47;5006294;28;20191;-67
2023/06/09 04:00:38;;;;;;;7.53;5.83;;;;;;;19.45;65.83;96831.34;5010181;28;20242;-67
2023/06/09 04:03:07;;;;;;;9.47;5.93;;;;;;;19.47;65.74;96821.53;5026389;28;20204;-67
2023/06/09 04:05:35;;;;;;;16.90;7.50;;;;;;;19.37;66.15;96839.03;5032312;28;20206;-67
2023/06/09 04:08:03;;;;;;;11.17;8.07;;;;;;;18.80;67.46;96835.97;5020185;28;20230;-76
2023/06/09 04:10:30;;;;;;;12.27;8.33;;;;;;;18.83;67.70;96846.22;5016929;28;20712;-71
2023/06/09 04:12:57;;;;;;;9.53;7.80;;;;;;;19.05;66.54;96837.41;5026568;28;20209;-78
2023/06/09 04:15:25;;;;;;;14.33;8.53;;;;;;;18.59;68.12;96837.69;5025718;28;20318;-77
2023/06/09 04:17:55;;;;;;;14.97;11.97;;;;;;;18.85;67.19;96831.19;5025668;28;20669;-78
2023/06/09 04:20:27;;;;;;;11.07;6.90;;;;;;;18.79;67.31;96846.59;5025837;28;20208;-80
2023/06/09 04:22:54;;;;;;;7.87;5.33;;;;;;;18.49;68.81;96844.63;5025595;28;20304;-76
2023/06/09 04:25:28;;;;;;;14.00;8.00;;;;;;;18.58;68.91;96851.78;5025584;28;20228;-74
2023/06/09 04:28:19;;;;;;;18.07;7.87;;;;;;;18.76;68.57;96850.28;5025188;28;20225;-67
2023/06/09 04:30:50;;;;;;;11.67;6.77;;;;;;;18.60;69.08;96842.00;5041802;28;20601;-75
2023/06/09 04:33:19;;;;;;;8.80;5.73;;;;;;;18.55;69.06;96849.38;5030163;28;20665;-75
2023/06/09 04:35:54;;;;;;;7.23;5.33;;;;;;;18.90;68.46;96831.63;5044954;28;20260;-72
2023/06/09 04:38:23;;;;;;;7.77;5.50;;;;;;;19.01;68.83;96857.81;5045984;28;20276;-69
2023/06/09 04:40:50;;;;;;;10.27;6.47;;;;;;;19.50;66.33;96841.47;5028757;28;20208;-71
2023/06/09 04:43:27;;;;;;;9.33;7.77;;;;;;;20.40;63.40;96864.31;5045464;28;20313;-78
2023/06/09 04:45:57;;;;;;;7.93;5.60;;;;;;;20.19;63.76;96853.00;5045123;28;20561;-76
2023/06/09 04:48:25;;;;;;;9.57;5.13;;;;;;;20.36;63.43;96855.00;5045112;28;20205;-74
2023/06/09 04:51:00;;;;;;;10.37;7.50;;;;;;;20.67;61.99;96856.59;5045297;28;20283;-74
2023/06/09 04:53:30;;;;;;;11.00;6.27;;;;;;;21.08;60.74;96843.22;5044776;28;20205;-74
2023/06/09 04:55:58;;;;;;;8.37;5.40;;;;;;;21.43;59.94;96852.34;5028846;28;20234;-80
2023/06/09 04:58:31;;;;;;;12.90;5.63;;;;;;;21.89;58.82;96849.75;5044655;28;20216;-74
2023/06/09 05:01:01;;;;;;;9.77;5.60;;;;;;;21.88;58.48;96843.63;5044834;28;20690;-72
2023/06/09 05:03:28;;;;;;;12.97;6.30;;;;;;;22.04;58.07;96837.75;5046267;28;20204;-77
2023/06/09 05:05:57;;;;;;;6.87;5.60;;;;;;;22.09;57.94;96853.16;5045221;28;20741;-77
2023/06/09 05:08:27;;;;;;;12.87;5.90;;;;;;;22.47;56.47;96855.59;5045214;28;20654;-67
2023/06/09 05:10:56;;;;;;;15.50;7.33;;;;;;;22.51;57.10;96852.50;5044783;28;20215;-73
2023/06/09 05:13:24;;;;;;;9.70;6.87;;;;;;;22.30;56.89;96857.19;5045189;28;20200;-79
2023/06/09 05:15:53;;;;;;;7.67;4.93;;;;;;;21.83;58.43;96843.25;5044656;28;20229;-71
2023/06/09 05:18:22;;;;;;;8.60;5.37;;;;;;;22.18;57.14;96850.47;5044600;28;20288;-66
2023/06/09 05:20:50;;;;;;;11.17;5.10;;;;;;;22.01;57.63;96843.31;5044570;28;20271;-68
2023/06/09 05:23:17;;;;;;;8.53;4.50;;;;;;;22.35;56.65;96841.78;5044528;28;20873;-65
2023/06/09 05:25:45;;;;;;;8.80;4.97;;;;;;;22.75;55.76;96845.88;5044721;28;20200;-72
2023/06/09 05:28:12;;;;;;;11.40;5.00;;;;;;;22.86;56.04;96848.28;5044220;28;20190;-67
2023/06/09 05:30:40;;;;;;;12.67;5.30;;;;;;;22.72;55.88;96844.34;5044775;28;20729;-66
2023/06/09 05:33:07;;;;;;;8.73;5.30;;;;;;;22.33;57.70;96843.72;5044202;28;20208;-67
2023/06/09 05:35:34;;;;;;;23.43;6.20;;;;;;;22.77;56.51;96844.75;5044311;28;20688;-68
2023/06/09 05:38:02;;;;;;;7.83;4.97;;;;;;;22.84;56.26;96844.94;5047261;28;20237;-66
2023/06/09 05:40:29;;;;;;;10.00;5.23;;;;;;;23.02;55.21;96840.53;5049298;28;20705;-67
2023/06/09 05:42:56;;;;;;;7.57;5.60;;;;;;;22.92;55.66;96840.59;5049421;28;20206;-74
2023/06/09 05:45:23;;;;;;;9.23;5.83;;;;;;;23.17;54.51;96844.28;5049156;28;20224;-74
2023/06/09 05:47:50;;;;;;;9.67;5.30;;;;;;;23.25;53.78;96852.25;5049749;28;20240;-71
2023/06/09 05:50:18;;;;;;;6.53;4.90;;;;;;;22.78;55.14;96845.56;5049249;28;20210;-71
2023/06/09 05:52:45;;;;;;;8.83;5.37;;;;;;;22.77;55.43;96844.75;5049323;28;20671;-77
2023/06/09 05:55:12;;;;;;;6.67;4.77;;;;;;;22.92;54.72;96852.94;5048796;28;20287;-72
2023/06/09 05:57:40;;;;;;;8.70;6.20;;;;;;;22.69;57.44;96843.84;5049130;28;20293;-74
2023/06/09 06:00:07;;;;;;;6.77;4.60;;;;;;;22.30;57.77;96849.28;5048820;28;20210;-76
2023/06/09 06:02:39;;;;;;;6.37;5.00;;;;;;;22.64;57.10;96863.59;5048786;28;20611;-78
2023/06/09 06:05:07;;;;;;;13.70;7.97;;;;;;;22.40;56.46;96850.06;5049354;28;20204;-76
2023/06/09 06:07:38;;;;;;;5.93;4.87;;;;;;;22.25;56.59;96856.81;5048419;28;20214;-77
2023/06/09 06:10:07;;;;;;;8.93;6.00;;;;;;;22.81;55.33;96855.84;5048688;28;20196;-67
2023/06/09 06:12:36;;;;;;;7.93;4.33;;;;;;;23.02;55.23;96859.03;5048417;28;20672;-66
2023/06/09 06:15:04;;;;;;;7.50;4.00;;;;;;;23.07;54.91;96846.16;5048405;28;20218;-76
2023/06/09 06:17:33;;;;;;;7.17;4.20;;;;;;;23.53;53.49;96853.03;5048579;28;20211;-80
2023/06/09 06:20:00;;;;;;;6.83;3.77;;;;;;;23.10;54.09;96819.47;5048443;28;20662;-69
2023/06/09 06:22:30;;;;;;;7.27;3.80;;;;;;;23.28;54.93;96844.03;5048968;28;20676;-71
2023/06/09 06:24:57;;;;;;;14.67;5.73;;;;;;;23.41;53.65;96831.31;5048068;28;20284;-73
2023/06/09 06:27:24;;;;;;;8.80;3.93;;;;;;;23.35;53.60;96805.47;5046700;28;20201;-73
2023/06/09 06:29:51;;;;;;;6.83;4.23;;;;;;;23.49;54.27;96849.88;5047856;28;20208;-73
2023/06/09 06:32:18;;;;;;;4.23;3.83;;;;;;;22.92;54.91;96850.31;5046807;28;20229;-76
2023/06/09 06:34:46;;;;;;;8.57;4.87;;;;;;;22.66;55.80;96839.66;5047969;28;20226;-77
2023/06/09 06:37:14;;;;;;;6.80;4.03;;;;;;;23.02;54.75;96835.25;5046739;28;20306;-77
2023/06/09 06:39:41;;;;;;;9.37;4.03;;;;;;;23.39;54.33;96849.09;5049194;28;20304;-72
2023/06/09 06:42:08;;;;;;;8.13;4.50;;;;;;;22.94;54.53;96849.19;5048013;28;20201;-76
2023/06/09 06:44:51;;;;;;;5.40;4.30;;;;;;;22.99;54.49;96843.47;5046228;28;20202;-71
2023/06/09 06:47:20;;;;;;;5.57;3.53;;;;;;;22.30;54.42;96733.19;5046064;28;20715;-71
2023/06/09 06:49:47;;;;;;;7.40;4.60;;;;;;;23.02;54.93;96827.31;5029489;28;20284;-68
2023/06/09 06:52:14;;;;;;;3.97;3.60;;;;;;;22.86;54.59;96854.41;5047658;28;20195;-74
2023/06/09 06:54:41;;;;;;;7.00;3.50;;;;;;;22.72;56.24;96856.72;5047165;28;20202;-75
2023/06/09 06:57:08;;;;;;;5.97;3.03;;;;;;;22.73;54.50;96853.13;5045869;28;20673;-68
2023/06/09 06:59:35;;;;;;;4.43;3.40;;;;;;;22.92;55.42;96850.31;5047411;28;20204;-72
2023/06/09 07:02:03;;;;;;;8.67;3.30;;;;;;;23.22;55.15;96844.66;5047458;28;20558;-69
2023/06/09 07:04:30;;;;;;;7.40;4.57;;;;;;;23.34;54.33;96854.03;5047131;28;20211;-69
2023/06/09 07:06:57;;;;;;;3.90;3.20;;;;;;;22.87;55.87;96839.38;5047336;28;20536;-74
2023/06/09 07:09:25;;;;;;;9.40;5.63;;;;;;;23.40;54.12;96842.84;5047161;28;20218;-72
2023/06/09 07:11:52;;;;;;;4.10;3.60;;;;;;;23.61;54.12;96842.50;5047036;28;20225;-78
2023/06/09 07:14:19;;;;;;;4.53;3.57;;;;;;;23.74;53.36;96846.38;5047510;28;20740;-71
2023/06/09 07:16:46;;;;;;;5.73;3.30;;;;;;;23.24;54.71;96829.47;5046887;28;20285;-68
2023/06/09 07:19:13;;;;;;;4.13;3.40;;;;;;;23.61;54.89;96847.78;5047709;28;20589;-76
2023/06/09 07:21:41;;;;;;;8.07;4.20;;;;;;;24.02;53.04;96839.09;5045556;28;20191;-75
2023/06/09 07:24:07;;;;;;;7.03;4.33;;;;;;;24.08;53.05;96842.00;5045371;28;20298;-68
2023/06/09 07:26:35;;;;;;;5.50;3.80;;;;;;;23.71;52.98;96814.13;5047069;28;20575;-74
2023/06/09 07:29:02;;;;;;;5.30;3.37;;;;;;;23.41;53.85;96839.25;5045263;28;20199;-71
2023/06/09 07:31:30;;;;;;;4.97;3.20;;;;;;;23.35;52.31;96822.16;5045778;28;20666;-68
2023/06/09 07:33:57;;;;;;;5.67;3.23;;;;;;;23.06;52.84;96776.66;5046648;28;20203;-73
2023/06/09 07:36:24;;;;;;;9.40;3.97;;;;;;;23.69;52.44;96840.75;5045643;28;20252;-76
2023/06/09 07:38:51;;;;;;;4.77;4.27;;;;;;;23.78;52.51;96817.81;5047000;28;20286;-71
2023/06/09 07:41:20;;;;;;;4.40;3.00;;;;;;;23.63;54.46;96827.31;5045249;28;20200;-73
2023/06/09 07:43:47;;;;;;;6.60;3.30;;;;;;;23.95;52.54;96811.63;5046572;28;20211;-74
2023/06/09 07:46:15;;;;;;;3.37;3.07;;;;;;;23.44;53.99;96825.69;5046811;28;20575;-75
2023/06/09 07:48:42;;;;;;;4.17;2.87;;;;;;;23.67;51.38;96820.72;5046729;28;20340;-78
2023/06/09 07:51:10;;;;;;;6.50;3.20;;;;;;;23.19;52.62;96813.25;5046387;28;20191;-79
2023/06/09 07:53:38;;;;;;;9.37;4.43;;;;;;;23.49;52.62;96806.72;5046816;28;20218;-68
2023/06/09 07:56:05;;;;;;;8.07;4.47;;;;;;;24.06;51.41;96814.03;5046102;28;20297;-67
2023/06/09 07:58:32;;;;;;;4.80;4.30;;;;;;;24.29;50.45;96816.94;5046320;28;20268;-69
2023/06/09 08:00:59;;;;;;;7.30;3.80;;;;;;;23.96;51.02;96803.53;5045279;28;20203;-67
2023/06/09 08:03:28;;;;;;;5.77;3.00;;;;;;;23.51;51.90;96831.19;5046173;28;20746;-67
2023/06/09 08:05:56;;;;;;;6.30;3.10;;;;;;;23.55;52.13;96822.81;5046326;28;20195;-67
2023/06/09 08:08:23;;;;;;;8.63;4.83;;;;;;;23.37;52.43;96814.06;5045533;28;20194;-69
2023/06/09 08:10:50;;;;;;;4.60;3.13;;;;;;;23.59;51.44;96824.16;5044719;28;20297;-67
2023/06/09 08:13:17;;;;;;;4.50;2.70;;;;;;;23.76;50.61;96822.44;5046086;28;20320;-68
2023/06/09 08:15:44;;;;;;;6.57;4.10;;;;;;;23.28;51.91;96833.47;5046317;28;20240;-66
2023/06/09 08:18:11;;;;;;;9.60;4.80;;;;;;;23.64;51.68;96829.78;5045609;28;20195;-68
2023/06/09 08:20:40;;;;;;;9.10;4.67;;;;;;;23.59;51.68;96818.03;5045764;28;20232;-68
2023/06/09 08:23:07;;;;;;;5.40;3.80;;;;;;;23.91;51.38;96834.06;5045755;28;20196;-68
2023/06/09 08:25:35;;;;;;;4.83;3.90;;;;;;;24.19;49.91;96833.75;5044763;28;20228;-68
2023/06/09 08:28:02;;;;;;;3.70;3.30;;;;;;;23.65;50.11;96831.47;5046210;28;20204;-68
2023/06/09 08:30:29;;;;;;;8.67;3.70;;;;;;;23.74;51.24;96827.88;5043933;28;20223;-67
2023/06/09 08:32:56;;;;;;;4.23;3.60;;;;;;;24.07;50.36;96824.44;5044485;28;20203;-67
2023/06/09 08:35:23;;;;;;;3.83;2.70;;;;;;;23.85;49.38;96829.41;5044235;28;20717;-66
2023/06/09 08:37:50;;;;;;;5.47;3.53;;;;;;;23.77;49.31;96834.66;5045595;28;20253;-67
2023/06/09 08:40:17;;;;;;;6.40;3.37;;;;;;;23.40;50.06;96795.28;5046639;28;20526;-68
2023/06/09 08:42:48;;;;;;;5.57;3.73;;;;;;;24.08;48.23;96825.28;5045493;28;20711;-72
2023/06/09 08:45:18;;;;;;;4.23;2.80;;;;;;;24.36;47.84;96813.47;5045944;28;20196;-70
2023/06/09 08:47:47;;;;;;;6.30;4.27;;;;;;;24.44;46.61;96828.56;5045409;28;20206;-75
2023/06/09 08:50:18;;;;;;;6.27;3.27;;;;;;;24.38;47.13;96823.91;5043717;28;20234;-71
2023/06/09 08:52:45;;;;;;;7.63;3.63;;;;;;;24.32;47.72;96816.63;5043266;28;20203;-74
2023/06/09 08:55:13;;;;;;;6.27;3.90;;;;;;;24.89;45.51;96821.09;5045575;28;20216;-68
2023/06/09 08:57:42;;;;;;;5.40;3.77;;;;;;;24.58;48.68;96806.75;5045665;28;20228;-68
2023/06/09 09:00:11;;;;;;;8.03;3.80;;;;;;;25.01;47.64;96803.88;5045217;28;20192;-68
2023/06/09 09:02:38;;;;;;;4.63;3.43;;;;;;;24.97;47.57;96814.00;5045672;28;20196;-68
2023/06/09 09:05:06;;;;;;;5.83;3.33;;;;;;;25.13;46.95;96802.56;5043474;28;20588;-70
2023/06/09 09:07:34;;;;;;;5.20;3.67;;;;;;;24.87;47.07;96808.00;5044430;28;20583;-68
2023/06/09 09:10:01;;;;;;;12.07;3.20;;;;;;;24.58;48.12;96807.59;5045240;28;20705;-72
2023/06/09 09:12:51;;;;;;;4.07;2.90;;;;;;;24.46;48.05;96813.34;5046932;28;20297;-66
2023/06/09 09:15:18;;;;;;;3.97;2.93;;;;;;;24.19;48.62;96817.88;5049171;28;20208;-73
2023/06/09 09:17:46;;;;;;;8.00;5.00;;;;;;;24.25;48.61;96803.19;5047428;28;20221;-67
2023/06/09 09:20:15;;;;;;;3.97;2.97;;;;;;;23.81;49.70;96813.03;5048231;28;20207;-66
2023/06/09 09:22:48;;;;;;;7.53;4.63;;;;;;;23.95;50.07;96799.22;5048598;28;20732;-68
2023/06/09 09:25:28;;;;;;;5.37;4.77;;;;;;;24.52;48.52;96802.13;5049048;28;20563;-68
2023/06/09 09:27:59;;;;;;;8.00;4.33;;;;;;;24.91;47.04;96798.75;5031039;28;20285;-67
2023/06/09 09:30:54;;;;;;;5.03;3.57;;;;;;;24.80;47.34;96798.22;5049378;28;20208;-68
2023/06/09 09:33:29;;;;;;;6.17;4.40;;;;;;;24.97;46.22;96802.56;5046474;28;20228;-68
2023/06/09 09:35:57;;;;;;;4.13;3.00;;;;;;;24.68;45.43;96780.97;5048488;28;20227;-68
2023/06/09 09:38:27;;;;;;;4.37;3.30;;;;;;;25.01;45.73;96772.06;5048507;28;20347;-69
2023/06/09 09:40:56;;;;;;;5.10;3.07;;;;;;;24.91;47.37;96779.38;5049979;28;20196;-69
2023/06/09 09:43:28;;;;;;;7.33;4.23;;;;;;;25.11;47.45;96783.34;5049086;28;20329;-70
2023/06/09 09:46:00;;;;;;;4.50;3.10;;;;;;;24.81;48.20;96789.28;5048416;28;20571;-73
2023/06/09 09:48:27;;;;;;;5.57;3.20;;;;;;;24.71;47.77;96784.09;5049154;28;20659;-68
2023/06/09 09:50:55;;;;;;;3.43;3.00;;;;;;;24.62;47.77;96781.59;5048312;28;20696;-69
2023/06/09 09:53:23;;;;;;;3.53;3.10;;;;;;;24.53;48.00;96782.56;5052046;28;20205;-67
2023/06/09 09:55:53;;;;;;;6.63;3.83;;;;;;;24.68;47.33;96783.59;5056202;28;20254;-68
2023/06/09 09:58:31;;;;;;;4.20;3.03;;;;;;;24.87;47.46;96776.19;5049652;28;20212;-73
2023/06/09 10:01:04;;;;;;;4.97;3.50;;;;;;;25.17;47.80;96760.63;5048593;28;20193;-71
2023/06/09 10:03:37;;;;;;;8.43;3.97;;;;;;;25.56;47.30;96777.50;5047793;28;20186;-74
2023/06/09 10:06:10;;;;;;;4.50;3.43;;;;;;;25.24;47.40;96761.63;5048573;28;20205;-72
2023/06/09 10:08:44;;;;;;;3.73;3.00;;;;;;;25.21;48.04;96761.94;5048957;28;20687;-70
2023/06/09 10:11:12;;;;;;;3.50;3.17;;;;;;;25.22;48.11;96751.19;5048824;28;20201;-71
2023/06/09 10:13:41;;;;;;;6.13;3.83;;;;;;;25.56;47.15;96753.63;5048614;28;20680;-70
2023/06/09 10:16:10;;;;;;;4.27;3.13;;;;;;;25.32;48.07;96751.84;5047196;28;20623;-72
2023/06/09 10:18:40;;;;;;;4.27;3.17;;;;;;;25.15;48.24;96763.47;5048525;28;20287;-68
2023/06/09 10:21:10;;;;;;;11.30;4.27;;;;;;;24.70;48.92;96763.09;5048236;28;20704;-70
2023/06/09 10:23:39;;;;;;;4.43;3.17;;;;;;;24.93;48.83;96732.34;5047141;28;20198;-71
2023/06/09 10:26:08;;;;;;;4.60;3.10;;;;;;;24.77;49.35;96762.28;5048427;28;20267;-70
2023/06/09 10:28:37;;;;;;;6.23;3.47;;;;;;;24.92;48.58;96742.09;5048078;28;20216;-70
2023/06/09 10:31:07;;;;;;;6.50;4.00;;;;;;;25.49;48.42;96750.03;5048952;28;20206;-77
2023/06/09 10:33:40;;;;;;;5.80;3.57;;;;;;;25.78;46.94;96747.63;5048610;28;20217;-76
2023/06/09 10:36:10;;;;;;;4.87;3.20;;;;;;;25.88;46.93;96747.41;5048196;28;20237;-70
2023/06/09 10:38:42;;;;;;;6.77;4.17;;;;;;;26.38;46.05;96747.84;5048584;28;20196;-67
2023/06/09 10:41:16;;;;;;;5.23;4.53;;;;;;;26.16;46.82;96753.97;5048241;28;20202;-68
2023/06/09 10:43:49;;;;;;;6.67;3.90;;;;;;;25.32;48.58;96748.34;5049324;28;20225;-67
2023/06/09 10:46:16;;;;;;;3.33;3.03;;;;;;;25.61;47.78;96744.19;5048522;28;20224;-68
2023/06/09 10:48:49;;;;;;;6.40;4.33;;;;;;;25.82;48.13;96738.34;5047970;28;20198;-71
2023/06/09 10:51:26;;;;;;;6.43;3.00;;;;;;;25.72;48.51;96741.16;5049442;28;20229;-68
2023/06/09 10:54:17;;;;;;;8.57;3.90;;;;;;;25.59;48.39;96732.94;5046758;28;20533;-77
2023/06/09 10:56:47;;;;;;;5.23;4.10;;;;;;;25.95;47.60;96748.38;5048350;28;20224;-67
2023/06/09 10:59:26;;;;;;;5.37;3.70;;;;;;;25.78;47.84;96753.75;5048277;28;20687;-68
2023/06/09 11:01:59;;;;;;;4.33;3.17;;;;;;;25.69;47.44;96741.53;5047739;28;20563;-66
2023/06/09 11:04:46;;;;;;;6.63;3.40;;;;;;;25.56;48.19;96741.22;5048410;28;20199;-67
2023/06/09 11:07:22;;;;;;;4.40;3.60;;;;;;;25.88;47.25;96734.16;5048082;28;20236;-68
2023/06/09 11:09:49;;;;;;;5.93;3.73;;;;;;;26.19;47.02;96733.22;5047967;28;20821;-71
2023/06/09 11:12:25;;;;;;;3.50;3.20;;;;;;;25.94;46.73;96733.47;5048497;28;20228;-68
2023/06/09 11:14:59;;;;;;;5.73;4.20;;;;;;;26.24;46.26;96728.19;5047274;28;20243;-68
2023/06/09 11:17:37;;;;;;;4.67;3.30;;;;;;;26.09;45.83;96729.94;5047467;28;20209;-68
2023/06/09 11:20:05;;;;;;;4.37;3.10;;;;;;;25.41;47.42;96726.97;5047487;28;20201;-66
2023/06/09 11:22:49;;;;;;;4.10;3.20;;;;;;;25.57;47.12;96726.97;5046338;28;20202;-75
2023/06/09 11:25:23;;;;;;;4.70;3.20;;;;;;;25.84;45.32;96728.38;5047692;28;20681;-72
2023/06/09 11:27:56;;;;;;;4.83;3.17;;;;;;;25.90;45.41;96718.88;5046929;28;20574;-72
2023/06/09 11:30:29;;;;;;;7.03;3.10;;;;;;;25.84;45.49;96723.06;5047645;28;20232;-68
2023/06/09 11:33:01;;;;;;;6.53;3.37;;;;;;;25.93;45.42;96710.56;5047134;28;20677;-70
2023/06/09 11:35:29;;;;;;;4.00;2.93;;;;;;;25.96;45.00;96705.75;5046917;28;20194;-72
2023/06/09 11:38:07;;;;;;;11.37;8.13;;;;;;;26.27;44.94;96703.13;5047455;28;20261;-75
2023/06/09 11:40:37;;;;;;;4.37;3.10;;;;;;;26.41;43.59;96697.91;5047344;28;20198;-80
2023/06/09 11:43:09;;;;;;;3.97;3.17;;;;;;;26.51;43.28;96705.63;5052364;28;20216;-73